sensor_id;sensor_type;location;lat;lon;timestamp;P1;durP1;ratioP1;P2;durP2;ratioP2
70303;SDS011;57712;48.752;11.348;2023-08-07T00:01:26;2.83;;;0.40;;
70303;SDS011;57712;48.752;11.348;2023-08-07T00:03:52;3.63;;;0.40;;
70303;SDS011;57712;48.752;11.348;2023-08-07T00:06:19;3.47;;;0.40;;
70303;SDS011;57712;48.752;11.348;2023-08-07T00:08:46;3.28;;;0.50;;
70303;SDS011;57712;48.752;11.348;2023-08-07T00:11:13;2.77;;;0.50;;
70303;SDS011;57712;48.752;11.348;2023-08-07T00:13:40;4.47;;;0.50;;
70303;SDS011;57712;48.752;11.348;2023-08-07T00:16:06;3.15;;;0.60;;
70303;SDS011;57712;48.752;11.348;2023-08-07T00:18:33;3.10;;;0.57;;
70303;SDS011;57712;48.752;11.348;2023-08-07T00:21:00;2.67;;;0.30;;
70303;SDS011;57712;48.752;11.348;2023-08-07T00:23:26;3.37;;;0.37;;
70303;SDS011;57712;48.752;11.348;2023-08-07T00:25:53;4.15;;;0.45;;
70303;SDS011;57712;48.752;11.348;2023-08-07T00:28:20;2.53;;;0.30;;
70303;SDS011;57712;48.752;11.348;2023-08-07T00:30:46;2.78;;;0.20;;
70303;SDS011;57712;48.752;11.348;2023-08-07T00:33:13;2.40;;;0.30;;
70303;SDS011;57712;48.752;11.348;2023-08-07T00:35:40;2.70;;;0.70;;
70303;SDS011;57712;48.752;11.348;2023-08-07T00:38:06;4.72;;;0.50;;
70303;SDS011;57712;48.752;11.348;2023-08-07T00:40:36;3.40;;;0.57;;
70303;SDS011;57712;48.752;11.348;2023-08-07T00:43:05;4.55;;;0.68;;
70303;SDS011;57712;48.752;11.348;2023-08-07T00:45:36;3.47;;;0.40;;
70303;SDS011;57712;48.752;11.348;2023-08-07T00:48:07;2.93;;;0.37;;
70303;SDS011;57712;48.752;11.348;2023-08-07T00:50:34;2.85;;;0.40;;
70303;SDS011;57712;48.752;11.348;2023-08-07T00:53:12;4.05;;;0.43;;
70303;SDS011;57712;48.752;11.348;2023-08-07T00:55:40;4.05;;;0.30;;
70303;SDS011;57712;48.752;11.348;2023-08-07T00:58:07;4.82;;;0.50;;
70303;SDS011;57712;48.752;11.348;2023-08-07T01:00:34;3.90;;;0.50;;
70303;SDS011;57712;48.752;11.348;2023-08-07T01:03:01;5.00;;;0.60;;
70303;SDS011;57712;48.752;11.348;2023-08-07T01:05:28;5.10;;;0.60;;
70303;SDS011;57712;48.752;11.348;2023-08-07T01:07:55;3.25;;;0.52;;
70303;SDS011;57712;48.752;11.348;2023-08-07T01:15:52;2.92;;;0.43;;
70303;SDS011;57712;48.752;11.348;2023-08-07T01:18:22;3.58;;;0.60;;
70303;SDS011;57712;48.752;11.348;2023-08-07T01:20:48;4.65;;;0.65;;
70303;SDS011;57712;48.752;11.348;2023-08-07T01:23:15;3.67;;;0.52;;
70303;SDS011;57712;48.752;11.348;2023-08-07T01:25:42;5.83;;;0.50;;
70303;SDS011;57712;48.752;11.348;2023-08-07T01:31:00;3.25;;;0.60;;
70303;SDS011;57712;48.752;11.348;2023-08-07T01:33:34;3.97;;;0.70;;
70303;SDS011;57712;48.752;11.348;2023-08-07T01:36:12;3.63;;;0.70;;
70303;SDS011;57712;48.752;11.348;2023-08-07T01:38:44;5.30;;;0.60;;
70303;SDS011;57712;48.752;11.348;2023-08-07T01:41:12;4.07;;;0.60;;
70303;SDS011;57712;48.752;11.348;2023-08-07T01:43:39;4.03;;;0.60;;
70303;SDS011;57712;48.752;11.348;2023-08-07T01:46:05;4.22;;;0.60;;
70303;SDS011;57712;48.752;11.348;2023-08-07T01:48:33;3.53;;;0.60;;
70303;SDS011;57712;48.752;11.348;2023-08-07T01:50:59;3.03;;;0.43;;
70303;SDS011;57712;48.752;11.348;2023-08-07T01:53:26;3.85;;;0.47;;
70303;SDS011;57712;48.752;11.348;2023-08-07T01:55:53;3.47;;;0.50;;
70303;SDS011;57712;48.752;11.348;2023-08-07T01:58:20;3.80;;;0.80;;
70303;SDS011;57712;48.752;11.348;2023-08-07T02:00:46;3.40;;;0.47;;
70303;SDS011;57712;48.752;11.348;2023-08-07T02:03:13;3.33;;;0.50;;
70303;SDS011;57712;48.752;11.348;2023-08-07T02:05:40;4.80;;;0.73;;
70303;SDS011;57712;48.752;11.348;2023-08-07T02:08:06;3.58;;;0.73;;
70303;SDS011;57712;48.752;11.348;2023-08-07T02:10:33;3.70;;;0.68;;
70303;SDS011;57712;48.752;11.348;2023-08-07T02:13:00;5.18;;;0.68;;
70303;SDS011;57712;48.752;11.348;2023-08-07T02:15:30;6.90;;;0.70;;
70303;SDS011;57712;48.752;11.348;2023-08-07T02:17:56;3.88;;;0.73;;
70303;SDS011;57712;48.752;11.348;2023-08-07T02:20:23;4.22;;;0.70;;
70303;SDS011;57712;48.752;11.348;2023-08-07T02:22:50;3.40;;;0.52;;
70303;SDS011;57712;48.752;11.348;2023-08-07T02:25:16;3.95;;;0.60;;
70303;SDS011;57712;48.752;11.348;2023-08-07T02:27:43;4.83;;;0.70;;
70303;SDS011;57712;48.752;11.348;2023-08-07T02:30:10;3.88;;;0.77;;
70303;SDS011;57712;48.752;11.348;2023-08-07T02:32:37;3.95;;;1.00;;
70303;SDS011;57712;48.752;11.348;2023-08-07T02:35:04;3.22;;;0.57;;
70303;SDS011;57712;48.752;11.348;2023-08-07T02:37:31;4.85;;;0.70;;
70303;SDS011;57712;48.752;11.348;2023-08-07T02:39:57;5.53;;;0.63;;
70303;SDS011;57712;48.752;11.348;2023-08-07T02:42:24;4.82;;;0.80;;
70303;SDS011;57712;48.752;11.348;2023-08-07T02:44:51;4.47;;;0.57;;
70303;SDS011;57712;48.752;11.348;2023-08-07T02:47:17;4.93;;;0.65;;
70303;SDS011;57712;48.752;11.348;2023-08-07T02:49:44;3.78;;;0.52;;
70303;SDS011;57712;48.752;11.348;2023-08-07T02:52:11;7.07;;;0.80;;
70303;SDS011;57712;48.752;11.348;2023-08-07T02:54:37;3.55;;;0.50;;
70303;SDS011;57712;48.752;11.348;2023-08-07T02:57:04;5.55;;;0.95;;
70303;SDS011;57712;48.752;11.348;2023-08-07T02:59:31;5.25;;;0.88;;
70303;SDS011;57712;48.752;11.348;2023-08-07T03:01:57;5.00;;;0.90;;
70303;SDS011;57712;48.752;11.348;2023-08-07T03:04:24;6.43;;;0.93;;
70303;SDS011;57712;48.752;11.348;2023-08-07T03:06:51;4.63;;;0.85;;
70303;SDS011;57712;48.752;11.348;2023-08-07T03:09:18;5.55;;;1.10;;
70303;SDS011;57712;48.752;11.348;2023-08-07T03:11:45;4.70;;;1.08;;
70303;SDS011;57712;48.752;11.348;2023-08-07T03:14:11;4.50;;;0.85;;
70303;SDS011;57712;48.752;11.348;2023-08-07T03:16:38;6.00;;;0.83;;
70303;SDS011;57712;48.752;11.348;2023-08-07T03:19:05;3.42;;;0.80;;
70303;SDS011;57712;48.752;11.348;2023-08-07T03:21:31;4.95;;;1.00;;
70303;SDS011;57712;48.752;11.348;2023-08-07T03:23:58;5.75;;;1.20;;
70303;SDS011;57712;48.752;11.348;2023-08-07T03:26:24;5.15;;;1.10;;
70303;SDS011;57712;48.752;11.348;2023-08-07T03:28:51;4.47;;;0.83;;
70303;SDS011;57712;48.752;11.348;2023-08-07T03:31:18;4.45;;;0.90;;
70303;SDS011;57712;48.752;11.348;2023-08-07T03:33:44;4.75;;;0.90;;
70303;SDS011;57712;48.752;11.348;2023-08-07T03:36:11;4.55;;;0.95;;
70303;SDS011;57712;48.752;11.348;2023-08-07T03:38:38;4.95;;;1.30;;
70303;SDS011;57712;48.752;11.348;2023-08-07T03:41:04;5.40;;;0.93;;
70303;SDS011;57712;48.752;11.348;2023-08-07T03:43:31;6.75;;;1.50;;
70303;SDS011;57712;48.752;11.348;2023-08-07T03:45:58;5.55;;;1.08;;
70303;SDS011;57712;48.752;11.348;2023-08-07T03:48:29;6.53;;;1.60;;
70303;SDS011;57712;48.752;11.348;2023-08-07T03:51:02;5.40;;;1.15;;
70303;SDS011;57712;48.752;11.348;2023-08-07T03:53:35;6.40;;;1.47;;
70303;SDS011;57712;48.752;11.348;2023-08-07T03:56:01;4.68;;;1.02;;
70303;SDS011;57712;48.752;11.348;2023-08-07T03:58:28;7.63;;;1.40;;
70303;SDS011;57712;48.752;11.348;2023-08-07T04:00:55;6.07;;;1.80;;
70303;SDS011;57712;48.752;11.348;2023-08-07T04:03:22;5.05;;;1.63;;
70303;SDS011;57712;48.752;11.348;2023-08-07T04:05:52;5.37;;;1.37;;
70303;SDS011;57712;48.752;11.348;2023-08-07T04:08:21;5.78;;;1.38;;
70303;SDS011;57712;48.752;11.348;2023-08-07T04:10:58;6.97;;;1.60;;
70303;SDS011;57712;48.752;11.348;2023-08-07T04:13:29;5.88;;;1.10;;
70303;SDS011;57712;48.752;11.348;2023-08-07T04:15:56;6.63;;;1.48;;
70303;SDS011;57712;48.752;11.348;2023-08-07T04:18:23;7.37;;;1.70;;
70303;SDS011;57712;48.752;11.348;2023-08-07T04:20:52;5.10;;;1.50;;
70303;SDS011;57712;48.752;11.348;2023-08-07T04:23:23;6.05;;;1.40;;
70303;SDS011;57712;48.752;11.348;2023-08-07T04:25:50;7.03;;;1.88;;
70303;SDS011;57712;48.752;11.348;2023-08-07T04:28:18;6.43;;;1.77;;
70303;SDS011;57712;48.752;11.348;2023-08-07T04:30:47;5.43;;;1.43;;
70303;SDS011;57712;48.752;11.348;2023-08-07T04:33:16;4.95;;;1.10;;
70303;SDS011;57712;48.752;11.348;2023-08-07T04:35:43;7.45;;;1.60;;
70303;SDS011;57712;48.752;11.348;2023-08-07T04:38:09;7.47;;;1.55;;
70303;SDS011;57712;48.752;11.348;2023-08-07T04:40:36;6.45;;;2.20;;
70303;SDS011;57712;48.752;11.348;2023-08-07T04:43:03;5.27;;;1.30;;
70303;SDS011;57712;48.752;11.348;2023-08-07T04:45:29;6.72;;;1.65;;
70303;SDS011;57712;48.752;11.348;2023-08-07T04:47:56;6.18;;;1.38;;
70303;SDS011;57712;48.752;11.348;2023-08-07T04:50:23;5.10;;;2.05;;
70303;SDS011;57712;48.752;11.348;2023-08-07T04:52:49;7.00;;;1.88;;
70303;SDS011;57712;48.752;11.348;2023-08-07T04:55:16;5.93;;;1.60;;
70303;SDS011;57712;48.752;11.348;2023-08-07T04:57:43;7.80;;;1.95;;
70303;SDS011;57712;48.752;11.348;2023-08-07T05:00:09;6.95;;;2.17;;
70303;SDS011;57712;48.752;11.348;2023-08-07T05:02:36;6.47;;;1.63;;
70303;SDS011;57712;48.752;11.348;2023-08-07T05:05:04;6.75;;;1.48;;
70303;SDS011;57712;48.752;11.348;2023-08-07T05:07:32;7.27;;;1.97;;
70303;SDS011;57712;48.752;11.348;2023-08-07T05:10:00;7.95;;;2.30;;
70303;SDS011;57712;48.752;11.348;2023-08-07T05:12:28;4.70;;;1.25;;
70303;SDS011;57712;48.752;11.348;2023-08-07T05:14:55;6.40;;;2.30;;
70303;SDS011;57712;48.752;11.348;2023-08-07T05:17:22;6.47;;;1.73;;
70303;SDS011;57712;48.752;11.348;2023-08-07T05:19:49;5.63;;;1.53;;
70303;SDS011;57712;48.752;11.348;2023-08-07T05:22:16;7.47;;;2.20;;
70303;SDS011;57712;48.752;11.348;2023-08-07T05:24:43;6.32;;;1.92;;
70303;SDS011;57712;48.752;11.348;2023-08-07T05:27:11;6.15;;;1.60;;
70303;SDS011;57712;48.752;11.348;2023-08-07T05:29:38;6.90;;;2.30;;
70303;SDS011;57712;48.752;11.348;2023-08-07T05:32:14;5.60;;;1.90;;
70303;SDS011;57712;48.752;11.348;2023-08-07T05:34:41;6.47;;;1.80;;
70303;SDS011;57712;48.752;11.348;2023-08-07T05:37:08;8.55;;;2.20;;
70303;SDS011;57712;48.752;11.348;2023-08-07T05:39:35;7.32;;;2.00;;
70303;SDS011;57712;48.752;11.348;2023-08-07T05:42:02;6.85;;;1.90;;
70303;SDS011;57712;48.752;11.348;2023-08-07T05:44:29;7.63;;;1.90;;
70303;SDS011;57712;48.752;11.348;2023-08-07T05:46:56;5.82;;;1.33;;
70303;SDS011;57712;48.752;11.348;2023-08-07T05:49:22;6.80;;;1.83;;
70303;SDS011;57712;48.752;11.348;2023-08-07T05:51:52;6.15;;;1.42;;
70303;SDS011;57712;48.752;11.348;2023-08-07T05:54:20;6.57;;;1.85;;
70303;SDS011;57712;48.752;11.348;2023-08-07T05:56:47;6.63;;;1.57;;
70303;SDS011;57712;48.752;11.348;2023-08-07T05:59:14;6.97;;;1.52;;
70303;SDS011;57712;48.752;11.348;2023-08-07T06:01:41;6.18;;;1.63;;
70303;SDS011;57712;48.752;11.348;2023-08-07T06:04:08;5.35;;;1.40;;
70303;SDS011;57712;48.752;11.348;2023-08-07T06:06:35;8.23;;;2.05;;
70303;SDS011;57712;48.752;11.348;2023-08-07T06:09:02;6.17;;;1.47;;
70303;SDS011;57712;48.752;11.348;2023-08-07T06:11:30;5.90;;;1.60;;
70303;SDS011;57712;48.752;11.348;2023-08-07T06:13:57;7.38;;;2.30;;
70303;SDS011;57712;48.752;11.348;2023-08-07T06:16:24;6.57;;;1.75;;
70303;SDS011;57712;48.752;11.348;2023-08-07T06:18:51;6.38;;;1.75;;
70303;SDS011;57712;48.752;11.348;2023-08-07T06:21:18;6.60;;;1.30;;
70303;SDS011;57712;48.752;11.348;2023-08-07T06:23:46;6.80;;;1.40;;
70303;SDS011;57712;48.752;11.348;2023-08-07T06:26:13;5.53;;;1.50;;
70303;SDS011;57712;48.752;11.348;2023-08-07T06:28:41;5.68;;;1.30;;
70303;SDS011;57712;48.752;11.348;2023-08-07T06:31:09;6.05;;;1.90;;
70303;SDS011;57712;48.752;11.348;2023-08-07T06:33:37;5.60;;;1.40;;
70303;SDS011;57712;48.752;11.348;2023-08-07T06:36:04;5.50;;;1.48;;
70303;SDS011;57712;48.752;11.348;2023-08-07T06:38:31;7.43;;;1.70;;
70303;SDS011;57712;48.752;11.348;2023-08-07T06:40:58;5.43;;;1.10;;
70303;SDS011;57712;48.752;11.348;2023-08-07T06:43:24;5.43;;;1.55;;
70303;SDS011;57712;48.752;11.348;2023-08-07T06:45:52;6.77;;;1.17;;
70303;SDS011;57712;48.752;11.348;2023-08-07T06:48:20;6.40;;;2.03;;
70303;SDS011;57712;48.752;11.348;2023-08-07T06:50:47;6.25;;;1.40;;
70303;SDS011;57712;48.752;11.348;2023-08-07T06:53:14;5.70;;;1.40;;
70303;SDS011;57712;48.752;11.348;2023-08-07T06:55:41;7.03;;;1.20;;
70303;SDS011;57712;48.752;11.348;2023-08-07T06:58:09;5.90;;;1.37;;
70303;SDS011;57712;48.752;11.348;2023-08-07T07:00:36;5.13;;;1.20;;
70303;SDS011;57712;48.752;11.348;2023-08-07T07:03:03;5.18;;;1.15;;
70303;SDS011;57712;48.752;11.348;2023-08-07T07:05:31;5.45;;;1.40;;
70303;SDS011;57712;48.752;11.348;2023-08-07T07:07:59;6.00;;;1.60;;
70303;SDS011;57712;48.752;11.348;2023-08-07T07:10:26;6.73;;;1.50;;
70303;SDS011;57712;48.752;11.348;2023-08-07T07:12:52;6.70;;;1.60;;
70303;SDS011;57712;48.752;11.348;2023-08-07T07:15:19;7.50;;;1.60;;
70303;SDS011;57712;48.752;11.348;2023-08-07T07:17:46;6.32;;;1.60;;
70303;SDS011;57712;48.752;11.348;2023-08-07T07:20:13;5.20;;;1.42;;
70303;SDS011;57712;48.752;11.348;2023-08-07T07:22:39;5.13;;;1.10;;
70303;SDS011;57712;48.752;11.348;2023-08-07T07:25:07;5.85;;;1.10;;
70303;SDS011;57712;48.752;11.348;2023-08-07T07:27:34;7.90;;;1.52;;
70303;SDS011;57712;48.752;11.348;2023-08-07T07:30:00;5.38;;;1.55;;
70303;SDS011;57712;48.752;11.348;2023-08-07T07:32:27;6.20;;;1.02;;
70303;SDS011;57712;48.752;11.348;2023-08-07T07:34:54;5.97;;;1.10;;
70303;SDS011;57712;48.752;11.348;2023-08-07T07:37:20;9.57;;;1.70;;
70303;SDS011;57712;48.752;11.348;2023-08-07T07:39:47;6.13;;;1.00;;
70303;SDS011;57712;48.752;11.348;2023-08-07T07:42:14;6.68;;;1.30;;
70303;SDS011;57712;48.752;11.348;2023-08-07T07:44:41;5.32;;;1.05;;
70303;SDS011;57712;48.752;11.348;2023-08-07T07:47:08;7.30;;;1.73;;
70303;SDS011;57712;48.752;11.348;2023-08-07T07:49:38;6.40;;;1.63;;
70303;SDS011;57712;48.752;11.348;2023-08-07T07:52:05;6.97;;;1.40;;
70303;SDS011;57712;48.752;11.348;2023-08-07T07:54:33;5.30;;;1.30;;
70303;SDS011;57712;48.752;11.348;2023-08-07T07:57:01;6.32;;;1.70;;
70303;SDS011;57712;48.752;11.348;2023-08-07T07:59:28;6.07;;;1.60;;
70303;SDS011;57712;48.752;11.348;2023-08-07T08:01:54;6.00;;;1.80;;
70303;SDS011;57712;48.752;11.348;2023-08-07T08:04:21;7.10;;;1.80;;
70303;SDS011;57712;48.752;11.348;2023-08-07T08:06:48;6.93;;;2.05;;
70303;SDS011;57712;48.752;11.348;2023-08-07T08:09:15;6.43;;;1.55;;
70303;SDS011;57712;48.752;11.348;2023-08-07T08:11:42;6.73;;;1.60;;
70303;SDS011;57712;48.752;11.348;2023-08-07T08:14:08;7.75;;;1.52;;
70303;SDS011;57712;48.752;11.348;2023-08-07T08:16:35;6.75;;;1.42;;
70303;SDS011;57712;48.752;11.348;2023-08-07T08:19:02;5.63;;;1.10;;
70303;SDS011;57712;48.752;11.348;2023-08-07T08:21:29;5.88;;;1.20;;
70303;SDS011;57712;48.752;11.348;2023-08-07T08:23:57;7.93;;;1.20;;
70303;SDS011;57712;48.752;11.348;2023-08-07T08:26:24;4.50;;;1.02;;
70303;SDS011;57712;48.752;11.348;2023-08-07T08:28:51;5.47;;;1.00;;
70303;SDS011;57712;48.752;11.348;2023-08-07T08:31:17;7.70;;;1.35;;
70303;SDS011;57712;48.752;11.348;2023-08-07T08:33:44;7.00;;;1.33;;
70303;SDS011;57712;48.752;11.348;2023-08-07T08:36:11;4.97;;;1.03;;
70303;SDS011;57712;48.752;11.348;2023-08-07T08:38:37;5.47;;;1.10;;
70303;SDS011;57712;48.752;11.348;2023-08-07T08:41:05;4.95;;;1.30;;
70303;SDS011;57712;48.752;11.348;2023-08-07T08:43:35;5.65;;;1.20;;
70303;SDS011;57712;48.752;11.348;2023-08-07T08:46:04;6.07;;;1.30;;
70303;SDS011;57712;48.752;11.348;2023-08-07T08:48:34;6.93;;;1.30;;
70303;SDS011;57712;48.752;11.348;2023-08-07T08:51:04;5.63;;;1.10;;
70303;SDS011;57712;48.752;11.348;2023-08-07T08:53:32;6.18;;;1.10;;
70303;SDS011;57712;48.752;11.348;2023-08-07T08:56:00;5.82;;;1.40;;
70303;SDS011;57712;48.752;11.348;2023-08-07T08:58:28;6.47;;;1.48;;
70303;SDS011;57712;48.752;11.348;2023-08-07T09:00:55;6.90;;;1.50;;
70303;SDS011;57712;48.752;11.348;2023-08-07T09:03:23;8.32;;;1.40;;
70303;SDS011;57712;48.752;11.348;2023-08-07T09:05:50;8.48;;;1.58;;
70303;SDS011;57712;48.752;11.348;2023-08-07T09:08:20;5.32;;;1.20;;
70303;SDS011;57712;48.752;11.348;2023-08-07T09:10:48;6.30;;;1.10;;
70303;SDS011;57712;48.752;11.348;2023-08-07T09:13:16;5.23;;;1.17;;
70303;SDS011;57712;48.752;11.348;2023-08-07T09:15:49;5.43;;;1.30;;
70303;SDS011;57712;48.752;11.348;2023-08-07T09:18:17;5.55;;;1.38;;
70303;SDS011;57712;48.752;11.348;2023-08-07T09:20:46;6.45;;;1.30;;
70303;SDS011;57712;48.752;11.348;2023-08-07T09:23:15;4.32;;;1.10;;
70303;SDS011;57712;48.752;11.348;2023-08-07T09:25:43;5.40;;;0.97;;
70303;SDS011;57712;48.752;11.348;2023-08-07T09:28:10;5.15;;;1.17;;
70303;SDS011;57712;48.752;11.348;2023-08-07T09:30:40;5.20;;;1.30;;
70303;SDS011;57712;48.752;11.348;2023-08-07T09:33:10;6.88;;;1.50;;
70303;SDS011;57712;48.752;11.348;2023-08-07T09:35:37;5.97;;;1.23;;
70303;SDS011;57712;48.752;11.348;2023-08-07T09:38:05;6.13;;;1.30;;
70303;SDS011;57712;48.752;11.348;2023-08-07T09:40:33;7.97;;;1.10;;
70303;SDS011;57712;48.752;11.348;2023-08-07T09:43:00;5.72;;;1.08;;
70303;SDS011;57712;48.752;11.348;2023-08-07T09:45:28;4.93;;;1.60;;
70303;SDS011;57712;48.752;11.348;2023-08-07T09:48:00;5.65;;;1.40;;
70303;SDS011;57712;48.752;11.348;2023-08-07T09:50:28;5.97;;;1.27;;
70303;SDS011;57712;48.752;11.348;2023-08-07T09:52:56;5.45;;;1.02;;
70303;SDS011;57712;48.752;11.348;2023-08-07T09:55:24;4.68;;;1.05;;
70303;SDS011;57712;48.752;11.348;2023-08-07T09:57:51;4.45;;;0.88;;
70303;SDS011;57712;48.752;11.348;2023-08-07T10:00:19;3.63;;;0.80;;
70303;SDS011;57712;48.752;11.348;2023-08-07T10:02:50;3.50;;;0.50;;
70303;SDS011;57712;48.752;11.348;2023-08-07T10:05:17;4.00;;;0.50;;
70303;SDS011;57712;48.752;11.348;2023-08-07T10:07:45;5.18;;;0.77;;
70303;SDS011;57712;48.752;11.348;2023-08-07T10:10:13;5.93;;;0.73;;
70303;SDS011;57712;48.752;11.348;2023-08-07T10:12:41;4.10;;;0.98;;
70303;SDS011;57712;48.752;11.348;2023-08-07T10:15:07;6.70;;;0.80;;
70303;SDS011;57712;48.752;11.348;2023-08-07T10:17:35;3.65;;;0.63;;
70303;SDS011;57712;48.752;11.348;2023-08-07T10:20:01;4.18;;;0.90;;
70303;SDS011;57712;48.752;11.348;2023-08-07T10:22:29;4.78;;;0.95;;
70303;SDS011;57712;48.752;11.348;2023-08-07T10:24:57;3.28;;;0.50;;
70303;SDS011;57712;48.752;11.348;2023-08-07T10:27:27;5.97;;;0.67;;
70303;SDS011;57712;48.752;11.348;2023-08-07T10:29:57;4.93;;;0.80;;
70303;SDS011;57712;48.752;11.348;2023-08-07T10:32:26;6.32;;;0.90;;
70303;SDS011;57712;48.752;11.348;2023-08-07T10:34:57;6.80;;;0.95;;
70303;SDS011;57712;48.752;11.348;2023-08-07T10:37:40;7.68;;;1.25;;
70303;SDS011;57712;48.752;11.348;2023-08-07T10:40:09;3.87;;;0.77;;
70303;SDS011;57712;48.752;11.348;2023-08-07T10:45:27;4.97;;;0.73;;
70303;SDS011;57712;48.752;11.348;2023-08-07T10:48:01;3.88;;;0.60;;
70303;SDS011;57712;48.752;11.348;2023-08-07T10:50:29;4.97;;;0.60;;
70303;SDS011;57712;48.752;11.348;2023-08-07T10:53:01;4.73;;;0.90;;
70303;SDS011;57712;48.752;11.348;2023-08-07T10:55:44;5.32;;;1.23;;
70303;SDS011;57712;48.752;11.348;2023-08-07T11:01:27;3.42;;;0.45;;
70303;SDS011;57712;48.752;11.348;2023-08-07T11:04:07;4.90;;;1.27;;
70303;SDS011;57712;48.752;11.348;2023-08-07T11:06:36;4.27;;;0.70;;
70303;SDS011;57712;48.752;11.348;2023-08-07T11:09:05;4.93;;;1.20;;
70303;SDS011;57712;48.752;11.348;2023-08-07T11:11:38;4.13;;;0.90;;
70303;SDS011;57712;48.752;11.348;2023-08-07T11:14:08;3.50;;;0.80;;
70303;SDS011;57712;48.752;11.348;2023-08-07T11:16:39;4.75;;;0.77;;
70303;SDS011;57712;48.752;11.348;2023-08-07T11:19:06;4.03;;;0.70;;
70303;SDS011;57712;48.752;11.348;2023-08-07T11:21:34;4.10;;;0.68;;
70303;SDS011;57712;48.752;11.348;2023-08-07T11:24:02;4.80;;;1.13;;
70303;SDS011;57712;48.752;11.348;2023-08-07T11:26:30;4.18;;;0.82;;
70303;SDS011;57712;48.752;11.348;2023-08-07T11:28:57;4.25;;;0.73;;
70303;SDS011;57712;48.752;11.348;2023-08-07T11:31:24;4.37;;;0.80;;
70303;SDS011;57712;48.752;11.348;2023-08-07T11:33:52;3.78;;;0.60;;
70303;SDS011;57712;48.752;11.348;2023-08-07T11:36:19;4.22;;;1.08;;
70303;SDS011;57712;48.752;11.348;2023-08-07T11:38:46;4.40;;;1.00;;
70303;SDS011;57712;48.752;11.348;2023-08-07T11:41:14;3.90;;;0.88;;
70303;SDS011;57712;48.752;11.348;2023-08-07T11:43:43;5.63;;;0.70;;
70303;SDS011;57712;48.752;11.348;2023-08-07T11:46:12;4.63;;;0.73;;
70303;SDS011;57712;48.752;11.348;2023-08-07T11:48:41;5.05;;;1.10;;
70303;SDS011;57712;48.752;11.348;2023-08-07T11:51:08;5.95;;;1.30;;
70303;SDS011;57712;48.752;11.348;2023-08-07T11:53:35;4.10;;;1.00;;
70303;SDS011;57712;48.752;11.348;2023-08-07T11:56:05;5.03;;;0.70;;
70303;SDS011;57712;48.752;11.348;2023-08-07T11:58:35;4.28;;;0.90;;
70303;SDS011;57712;48.752;11.348;2023-08-07T12:01:06;5.35;;;1.15;;
70303;SDS011;57712;48.752;11.348;2023-08-07T12:03:36;5.18;;;0.70;;
70303;SDS011;57712;48.752;11.348;2023-08-07T12:06:08;3.67;;;0.52;;
70303;SDS011;57712;48.752;11.348;2023-08-07T12:08:39;3.40;;;0.70;;
70303;SDS011;57712;48.752;11.348;2023-08-07T12:11:08;4.95;;;0.60;;
70303;SDS011;57712;48.752;11.348;2023-08-07T12:13:43;4.38;;;0.70;;
70303;SDS011;57712;48.752;11.348;2023-08-07T12:16:14;4.15;;;0.52;;
70303;SDS011;57712;48.752;11.348;2023-08-07T12:18:46;3.13;;;0.57;;
70303;SDS011;57712;48.752;11.348;2023-08-07T12:21:18;3.20;;;0.57;;
70303;SDS011;57712;48.752;11.348;2023-08-07T12:23:55;4.82;;;0.85;;
70303;SDS011;57712;48.752;11.348;2023-08-07T12:26:22;3.50;;;0.65;;
70303;SDS011;57712;48.752;11.348;2023-08-07T12:28:49;3.40;;;0.60;;
70303;SDS011;57712;48.752;11.348;2023-08-07T12:31:17;4.13;;;0.80;;
70303;SDS011;57712;48.752;11.348;2023-08-07T12:33:44;5.43;;;0.83;;
70303;SDS011;57712;48.752;11.348;2023-08-07T12:36:10;3.80;;;0.68;;
70303;SDS011;57712;48.752;11.348;2023-08-07T12:38:43;4.50;;;0.85;;
70303;SDS011;57712;48.752;11.348;2023-08-07T12:41:10;5.00;;;0.75;;
70303;SDS011;57712;48.752;11.348;2023-08-07T12:43:40;3.88;;;0.88;;
70303;SDS011;57712;48.752;11.348;2023-08-07T12:46:06;3.67;;;0.60;;
70303;SDS011;57712;48.752;11.348;2023-08-07T12:48:36;4.03;;;0.70;;
70303;SDS011;57712;48.752;11.348;2023-08-07T12:51:03;5.45;;;0.80;;
70303;SDS011;57712;48.752;11.348;2023-08-07T12:53:29;3.65;;;0.85;;
70303;SDS011;57712;48.752;11.348;2023-08-07T12:55:58;4.63;;;0.98;;
70303;SDS011;57712;48.752;11.348;2023-08-07T12:58:24;3.77;;;0.70;;
70303;SDS011;57712;48.752;11.348;2023-08-07T13:00:54;3.50;;;0.95;;
70303;SDS011;57712;48.752;11.348;2023-08-07T13:03:20;6.30;;;0.95;;
70303;SDS011;57712;48.752;11.348;2023-08-07T13:05:47;4.18;;;0.70;;
70303;SDS011;57712;48.752;11.348;2023-08-07T13:08:14;5.63;;;1.40;;
70303;SDS011;57712;48.752;11.348;2023-08-07T13:10:41;4.03;;;1.13;;
70303;SDS011;57712;48.752;11.348;2023-08-07T13:13:08;3.83;;;0.75;;
70303;SDS011;57712;48.752;11.348;2023-08-07T13:15:35;3.97;;;1.23;;
70303;SDS011;57712;48.752;11.348;2023-08-07T13:18:01;6.35;;;1.02;;
70303;SDS011;57712;48.752;11.348;2023-08-07T13:20:29;5.13;;;1.20;;
70303;SDS011;57712;48.752;11.348;2023-08-07T13:23:00;3.60;;;0.90;;
70303;SDS011;57712;48.752;11.348;2023-08-07T13:25:27;4.07;;;0.85;;
70303;SDS011;57712;48.752;11.348;2023-08-07T13:27:54;5.03;;;1.42;;
70303;SDS011;57712;48.752;11.348;2023-08-07T13:30:21;3.60;;;0.80;;
70303;SDS011;57712;48.752;11.348;2023-08-07T13:32:48;6.28;;;1.38;;
70303;SDS011;57712;48.752;11.348;2023-08-07T13:35:15;4.93;;;0.70;;
70303;SDS011;57712;48.752;11.348;2023-08-07T13:37:41;5.22;;;0.80;;
70303;SDS011;57712;48.752;11.348;2023-08-07T13:40:08;3.55;;;1.02;;
70303;SDS011;57712;48.752;11.348;2023-08-07T13:42:38;5.90;;;1.00;;
70303;SDS011;57712;48.752;11.348;2023-08-07T13:45:05;4.10;;;1.10;;
70303;SDS011;57712;48.752;11.348;2023-08-07T13:47:34;4.90;;;1.10;;
70303;SDS011;57712;48.752;11.348;2023-08-07T13:50:02;6.18;;;1.10;;
70303;SDS011;57712;48.752;11.348;2023-08-07T13:52:30;4.85;;;1.30;;
70303;SDS011;57712;48.752;11.348;2023-08-07T13:54:57;5.38;;;0.95;;
70303;SDS011;57712;48.752;11.348;2023-08-07T13:57:23;4.43;;;0.80;;
70303;SDS011;57712;48.752;11.348;2023-08-07T13:59:50;4.43;;;0.83;;
70303;SDS011;57712;48.752;11.348;2023-08-07T14:02:17;4.43;;;0.70;;
70303;SDS011;57712;48.752;11.348;2023-08-07T14:04:44;3.65;;;0.80;;
70303;SDS011;57712;48.752;11.348;2023-08-07T14:07:12;4.13;;;1.02;;
70303;SDS011;57712;48.752;11.348;2023-08-07T14:09:39;4.63;;;0.93;;
70303;SDS011;57712;48.752;11.348;2023-08-07T14:12:06;4.33;;;0.77;;
70303;SDS011;57712;48.752;11.348;2023-08-07T14:14:33;3.33;;;0.57;;
70303;SDS011;57712;48.752;11.348;2023-08-07T14:17:00;4.30;;;0.82;;
70303;SDS011;57712;48.752;11.348;2023-08-07T14:19:28;3.83;;;0.60;;
70303;SDS011;57712;48.752;11.348;2023-08-07T14:21:55;4.00;;;0.80;;
70303;SDS011;57712;48.752;11.348;2023-08-07T14:24:22;3.97;;;0.83;;
70303;SDS011;57712;48.752;11.348;2023-08-07T14:26:49;3.15;;;0.80;;
70303;SDS011;57712;48.752;11.348;2023-08-07T14:29:15;3.83;;;0.80;;
70303;SDS011;57712;48.752;11.348;2023-08-07T14:31:42;5.22;;;0.90;;
70303;SDS011;57712;48.752;11.348;2023-08-07T14:34:09;4.10;;;0.90;;
70303;SDS011;57712;48.752;11.348;2023-08-07T14:36:35;4.13;;;0.83;;
70303;SDS011;57712;48.752;11.348;2023-08-07T14:39:03;3.45;;;0.80;;
70303;SDS011;57712;48.752;11.348;2023-08-07T14:41:30;3.50;;;0.55;;
70303;SDS011;57712;48.752;11.348;2023-08-07T14:43:57;4.90;;;0.70;;
70303;SDS011;57712;48.752;11.348;2023-08-07T14:46:23;4.28;;;1.00;;
70303;SDS011;57712;48.752;11.348;2023-08-07T14:48:50;4.13;;;1.00;;
70303;SDS011;57712;48.752;11.348;2023-08-07T14:51:17;4.00;;;0.77;;